全部
Kihnu Airfield Airport (Kihnu) EEKU 天氣
There is no TAF data available at EEKU or any nearby airports.
There is no METAR data available at EEKU. Showing METAR data for EEPU (25 mi NE).
EPU近期METAR歷史資料(EEKU無資料)
| Date | Time (EEST) | Flight Rules | Wind Dir. | Speed | Type | Height AGL (ft) | Visibility | Temp (°C) | Temp (°F) | Dew Point (°C) | Dew Point (°F) | Rel. Humid. | Pressure | Density Altitude | Remarks |
|---|---|---|---|---|---|---|---|---|---|---|---|---|---|---|---|
| 03-五月 | 00:50 | VFR | 200° | 7 kt | 10000 meters | 7° | 44° | 5° | 41° | 87% | 1011 mb | -848 ft | |||
| 03-五月 | 00:20 | VFR | 200° | 7 kt | 10000 meters | 8° | 46° | 5° | 41° | 81% | 1011 mb | -728 ft | |||
| 02-五月 | 23:50 | VFR | 190° | 6 kt | 10000 meters | 8° | 46° | 5° | 41° | 81% | 1011 mb | -728 ft | |||
| 02-五月 | 23:20 | VFR | 190° | 6 kt | 10000 meters | 8° | 46° | 5° | 41° | 81% | 1012 mb | -757 ft | |||
| 02-五月 | 22:50 | VFR | 180° | 8 kt | 10000 meters | 9° | 48° | 5° | 41° | 76% | 1012 mb | -637 ft | |||
| 02-五月 | 22:20 | VFR | 170° | 8 kt | 10000 meters | 8° | 46° | 5° | 41° | 81% | 1012 mb | -757 ft | |||
| 02-五月 | 21:50 | VFR | 200° | 10 kt | 10000 meters | 11° | 51° | 4° | 39° | 62% | 1012 mb | -397 ft | |||
| 02-五月 | 21:20 | VFR | 220° | 8 kt | 10000 meters | 11° | 51° | 4° | 39° | 62% | 1012 mb | -397 ft | |||
| 02-五月 | 20:50 | VFR | 220° | 11 kt | 10000 meters | 12° | 53° | 3° | 37° | 54% | 1012 mb | -277 ft | |||
| 02-五月 | 20:20 | VFR | 230° | 12 kt | 10000 meters | 14° | 57° | 3° | 37° | 47% | 1012 mb | -37 ft | |||
| 02-五月 | 19:50 | VFR | 240° | 13 kt | 10000 meters | 16° | 60° | 4° | 39° | 45% | 1013 mb | 173 ft | Wind gusting to 24 KT | ||
| 02-五月 | 19:20 | VFR | 250° | 17 kt | 10000 meters | 16° | 60° | 1° | 33° | 36% | 1013 mb | 173 ft | |||
| 02-五月 | 18:50 | VFR | 240° | 19 kt | 10000 meters | 17° | 62° | 3° | 37° | 39% | 1013 mb | 293 ft | |||
| 02-五月 | 18:20 | VFR | 240° | 15 kt | 10000 meters | 18° | 64° | 4° | 39° | 39% | 1014 mb | 384 ft | |||
| 02-五月 | 17:50 | VFR | 230° | 15 kt | 10000 meters | 17° | 62° | 4° | 39° | 42% | 1014 mb | 264 ft | |||
| 02-五月 | 17:20 | VFR | 220° | 14 kt | 10000 meters | 18° | 64° | 5° | 41° | 42% | 1014 mb | 384 ft | |||
| 02-五月 | 16:50 | VFR | 180° | 10 kt | 10000 meters | 16° | 60° | 5° | 41° | 48% | 1014 mb | 144 ft | |||
| 02-五月 | 16:20 | VFR | 200° | 14 kt | 10000 meters | 15° | 59° | 6° | 42° | 55% | 1014 mb | 24 ft | |||
| 02-五月 | 15:50 | VFR | 190° | 13 kt | 10000 meters | 13° | 55° | 6° | 42° | 62% | 1014 mb | -216 ft | |||
| 02-五月 | 15:20 | VFR | 200° | 13 kt | 10000 meters | 13° | 55° | 6° | 42° | 62% | 1015 mb | -246 ft | |||
| 02-五月 | 14:50 | VFR | 200° | 13 kt | 10000 meters | 14° | 57° | 6° | 42° | 58% | 1015 mb | -126 ft | |||
| 02-五月 | 14:20 | VFR | 200° | 12 kt | 10000 meters | 14° | 57° | 6° | 42° | 58% | 1015 mb | -126 ft | |||
| 02-五月 | 13:50 | VFR | 210° | 15 kt | 10000 meters | 14° | 57° | 6° | 42° | 58% | 1015 mb | -126 ft | |||
| 02-五月 | 13:20 | VFR | 200° | 12 kt | 10000 meters | 16° | 60° | 6° | 42° | 51% | 1015 mb | 114 ft |
登入
| 您的瀏覽器不支援. 升級您的瀏覽器 |
